This is the latest recevied weather packets stored in our database for station/object HS3UAA-1. If no packets are shown the sender has not sent any weather packets the latest 10 day(s).
| Time | Temp. | Humidity | Pressure | Rain* | Wind** | Luminosity | Snow |
|---|---|---|---|---|---|---|---|
| 1777319135 | 34.44° C | 45% | 995 hPa | - | - | 0 W/m² | - |
| 1777318813 | 34.44° C | 45% | 994 hPa | - | - | 0 W/m² | - |
| 1777318491 | 35° C | 44% | 994 hPa | - | - | 0 W/m² | - |
| 1777318169 | 34.44° C | 45% | 995 hPa | - | - | 0 W/m² | - |
| 1777317847 | 35° C | 44% | 995 hPa | - | - | 0 W/m² | - |
| 1777317524 | 34.44° C | 45% | 995 hPa | - | - | 0 W/m² | - |
| 1777317202 | 35° C | 44% | 995 hPa | - | - | 0 W/m² | - |
| 1777316880 | 34.44° C | 44% | 995 hPa | - | - | 0 W/m² | - |
| 1777316558 | 35° C | 44% | 995 hPa | - | - | 0 W/m² | - |
| 1777316236 | 35° C | 44% | 995 hPa | - | - | 0 W/m² | - |
| 1777315914 | 34.44° C | 45% | 995 hPa | - | - | 0 W/m² | - |
| 1777315592 | 35.56° C | 43% | 995 hPa | - | - | 0 W/m² | - |
| 1777315270 | 35° C | 43% | 995 hPa | - | - | 0 W/m² | - |
| 1777314948 | 35° C | 44% | 995 hPa | - | - | 0 W/m² | - |
| 1777314626 | 35° C | 44% | 995 hPa | - | - | 0 W/m² | - |
| 1777314304 | 35° C | 43% | 995 hPa | - | - | 0 W/m² | - |
| 1777313982 | 35° C | 43% | 995 hPa | - | - | 0 W/m² | - |
| 1777313660 | 35.56° C | 42% | 995 hPa | - | - | 0 W/m² | - |
| 1777313337 | 35.56° C | 42% | 995 hPa | - | - | 0 W/m² | - |
| 1777313015 | 35.56° C | 42% | 995 hPa | - | - | 0 W/m² | - |
| 1777312693 | 35.56° C | 42% | 995 hPa | - | - | 0 W/m² | - |
| 1777312371 | 35° C | 44% | 995 hPa | - | - | 0 W/m² | - |
| 1777312049 | 36.11° C | 41% | 995 hPa | - | - | 0 W/m² | - |
| 1777311727 | 35° C | 43% | 995 hPa | - | - | 0 W/m² | - |
| 1777311405 | 35° C | 42% | 996 hPa | - | - | 0 W/m² | - |
* Rain since midnight (hover to see other rain measurements)
** Current wind speed in m/s (hover to see current wind gust speed)